Portada
METAR-TAF:

METAR-TAF

Aeroports :

Saint-Denis, Reunió

latitud: 20-53S, longitud: 055-31E, altitud: 21 m

Observació

L'informe es va fer fa 35 minuts, a les 07:30 UTC
Vent 9 kt del Est
Temperatura 28°C
Humitat 58%
Pressió 1012 hPa
Visibilitat 10 km o més
Escasses núvols a una alçada de 6000 ft

METAR: FMEE 080730Z AUTO 08009KT 9999 FEW060 28/19 Q1012 TEMPO 33010KT

Hora: 12:05 (08:05 UTC)

Pronòstic

L'informe es va fer fa 3 hores i 5 minuts, a les 05:00 UTC
Pronòstic vàlid del 08 a les 06 UTC al 09 a les 12 UTC
Vent 4 kt amb direcció variable
Visibilitat 10 km o més
Escasses núvols a una alçada de 3000 ft
Núvols disperses a una alçada de 6000 ft
Temporalment
l' 08 a les 06 UTC al 08 a les 10 UTC
Vent 10 kt del Nord/Nord-Oest
Evolucionant progressivament
l' 09 a les 04 UTC al 09 a les 06 UTC
Vent 14 kt del Est

TAF: FMEE 080500Z 0806/0912 VRB04KT 9999 FEW030 SCT060 TEMPO 0806/0810 33010KT BECMG 0904/0906 10014KT

Observacions i pronòstics meteorològics de més de 4000 aeroports (METAR i TAF).

Les estacions disponibles són els punts grocs i vermells al mapa.

Posi el ratolí al punt desitjat per veure el nom de l'estació.

Feu clic per veure les observacions i els pronòstics meteorològics.

Per canviar el mapa: feu clic els botons verds amb una creu de color negre per apropar; al botó verd amb un guió per allunyar la imatge; o en les fletxes verdes per a mapes adjacents.


METAR-TAF: